Time;durP1;ratioP1;P1;durP2;ratioP2;P2;SDS_P1;SDS_P2;PMS_P1;PMS_P2;Temp;Humidity;BMP_temperature;BMP_pressure;BME280_temperature;BME280_humidity;BME280_pressure;Samples;Min_cycle;Max_cycle;Signal;HPM_P1;HPM_P2
2021/11/21 00:00:21;;;;;;;32.25;20.58;;;;;;;9.13;96.30;100395.19;5060320;28;20498;-82
2021/11/21 00:02:48;;;;;;;33.30;20.38;;;;;;;9.06;96.57;100384.19;5057381;28;20299;-83
2021/11/21 00:05:15;;;;;;;33.70;21.70;;;;;;;9.10;96.24;100380.47;5040365;28;20520;-82
2021/11/21 00:07:43;;;;;;;34.20;22.63;;;;;;;9.06;96.62;100378.94;5036442;28;20033;-82
2021/11/21 00:10:11;;;;;;;34.50;21.52;;;;;;;9.07;96.85;100385.03;5061019;28;20120;-83
2021/11/21 00:12:38;;;;;;;33.50;21.95;;;;;;;9.06;96.88;100380.72;5027186;28;20407;-82
2021/11/21 00:15:06;;;;;;;30.80;21.48;;;;;;;9.07;96.86;100375.38;5023794;28;20033;-84
2021/11/21 00:17:37;;;;;;;31.75;20.50;;;;;;;9.10;96.62;100363.88;5032203;28;20048;-81
2021/11/21 00:20:07;;;;;;;35.88;22.30;;;;;;;9.04;96.50;100362.41;5032158;28;20067;-82
2021/11/21 00:22:38;;;;;;;36.55;22.30;;;;;;;9.08;96.57;100363.09;5043812;28;20045;-82
2021/11/21 00:25:15;;;;;;;30.83;20.23;;;;;;;9.05;97.13;100356.25;5055744;28;20075;-82
2021/11/21 00:27:42;;;;;;;34.17;21.63;;;;;;;9.07;96.84;100372.75;5059834;28;20469;-81
2021/11/21 00:30:10;;;;;;;33.00;21.40;;;;;;;9.11;95.71;100355.91;5038330;28;20040;-81
2021/11/21 00:32:45;;;;;;;35.85;20.67;;;;;;;9.09;96.10;100368.25;5030336;28;20045;-83
2021/11/21 00:35:23;;;;;;;32.10;21.10;;;;;;;9.12;95.86;100362.00;5060318;28;20040;-83
2021/11/21 00:37:50;;;;;;;34.40;21.90;;;;;;;9.08;95.42;100352.59;5028802;28;20515;-82
2021/11/21 00:40:21;;;;;;;32.25;20.63;;;;;;;9.11;95.56;100344.56;5040481;28;20541;-80
2021/11/21 00:42:57;;;;;;;30.60;20.27;;;;;;;9.05;95.79;100345.75;5048168;28;20055;-82
2021/11/21 00:45:27;;;;;;;31.52;21.63;;;;;;;8.99;96.02;100350.50;5030037;28;20441;-83
2021/11/21 00:47:55;;;;;;;32.08;20.40;;;;;;;8.99;96.15;100342.63;5050397;28;20041;-83
2021/11/21 00:50:28;;;;;;;29.27;20.67;;;;;;;8.97;96.61;100337.47;5064988;28;20094;-84
2021/11/21 00:53:02;;;;;;;29.40;19.52;;;;;;;9.03;96.27;100328.38;5042558;28;20052;-82
2021/11/21 00:55:41;;;;;;;32.80;20.98;;;;;;;8.97;96.31;100332.22;5046458;28;20072;-82
2021/11/21 00:58:10;;;;;;;30.92;19.25;;;;;;;8.99;96.07;100340.00;5054852;28;20621;-83
2021/11/21 01:00:41;;;;;;;28.75;19.45;;;;;;;8.97;96.54;100332.22;5036252;28;20072;-83
2021/11/21 01:03:15;;;;;;;29.98;19.85;;;;;;;8.98;95.94;100318.13;5046218;28;20060;-82
2021/11/21 01:05:43;;;;;;;29.15;19.50;;;;;;;8.97;95.86;100326.97;5044362;28;20040;-82
2021/11/21 01:08:12;;;;;;;30.67;19.63;;;;;;;8.95;96.23;100330.59;5048452;28;20131;-81
2021/11/21 01:10:41;;;;;;;29.45;19.35;;;;;;;8.92;96.50;100325.53;5031405;28;20148;-83
2021/11/21 01:13:08;;;;;;;27.92;18.73;;;;;;;8.97;95.95;100326.97;5062655;28;20705;-84
2021/11/21 01:15:36;;;;;;;26.08;18.05;;;;;;;8.98;95.94;100325.19;5046105;28;20036;-82
2021/11/21 01:18:05;;;;;;;29.98;18.90;;;;;;;8.99;95.85;100316.34;5035486;28;20052;-83
2021/11/21 01:20:34;;;;;;;28.92;18.88;;;;;;;8.93;96.04;100312.31;5048611;28;20029;-82
2021/11/21 01:23:03;;;;;;;28.25;19.67;;;;;;;8.92;95.81;100302.75;5027782;28;20132;-81
2021/11/21 01:25:31;;;;;;;28.83;17.15;;;;;;;8.90;95.51;100309.00;5069029;28;20135;-82
2021/11/21 01:27:58;;;;;;;27.33;18.27;;;;;;;8.88;96.38;100319.59;5078445;28;20048;-80
2021/11/21 01:30:28;;;;;;;26.70;18.98;;;;;;;8.93;95.80;100293.09;5041138;28;20086;-83
2021/11/21 01:32:57;;;;;;;30.02;19.60;;;;;;;8.92;96.66;100296.66;5080430;28;20116;-81
2021/11/21 01:35:25;;;;;;;25.10;18.48;;;;;;;8.87;96.54;100296.88;5048068;28;20044;-82
2021/11/21 01:37:53;;;;;;;27.73;17.90;;;;;;;8.93;96.11;100317.56;5046248;28;20163;-83
2021/11/21 01:40:21;;;;;;;27.08;19.05;;;;;;;8.90;96.16;100294.09;5050952;28;20041;-82
2021/11/21 01:42:50;;;;;;;27.63;18.85;;;;;;;8.86;96.35;100282.09;5069018;28;20127;-83
2021/11/21 01:45:17;;;;;;;29.85;19.92;;;;;;;8.95;95.85;100278.09;5073257;28;20045;-81
2021/11/21 01:47:46;;;;;;;26.33;17.67;;;;;;;8.93;96.23;100275.56;5053537;28;20055;-82
2021/11/21 01:50:22;;;;;;;28.00;20.27;;;;;;;8.87;95.89;100274.13;5066194;28;20325;-81
2021/11/21 01:52:50;;;;;;;30.85;19.42;;;;;;;8.86;96.45;100266.34;5030151;28;20041;-82
2021/11/21 01:55:19;;;;;;;27.75;19.67;;;;;;;8.81;96.34;100257.88;5067902;28;20128;-82
2021/11/21 01:57:50;;;;;;;29.27;19.58;;;;;;;8.80;96.47;100283.28;5072489;28;20044;-83
2021/11/21 02:00:17;;;;;;;30.15;18.38;;;;;;;8.75;95.64;100258.25;5070629;28;20056;-81
2021/11/21 02:02:45;;;;;;;28.95;18.98;;;;;;;8.77;96.13;100258.97;5047830;28;20135;-81
2021/11/21 02:05:12;;;;;;;28.52;18.75;;;;;;;8.73;96.35;100265.34;5053803;28;20044;-82
2021/11/21 02:07:42;;;;;;;31.10;19.27;;;;;;;8.75;95.87;100234.63;5034203;28;20079;-81
2021/11/21 02:10:12;;;;;;;31.63;20.30;;;;;;;8.79;95.94;100244.84;5076287;28;20071;-81
2021/11/21 02:12:40;;;;;;;29.10;19.02;;;;;;;8.76;96.27;100231.91;5044855;28;20431;-83
2021/11/21 02:15:10;;;;;;;29.17;18.70;;;;;;;8.71;95.73;100228.69;5070434;28;20049;-82
2021/11/21 02:17:37;;;;;;;29.48;19.15;;;;;;;8.71;95.78;100217.34;5030241;28;20051;-83
2021/11/21 02:20:07;;;;;;;29.88;19.95;;;;;;;8.72;95.74;100217.25;5050694;28;20437;-83
2021/11/21 02:22:37;;;;;;;30.70;19.70;;;;;;;8.76;95.21;100217.94;5048348;28;20062;-83
2021/11/21 02:25:05;;;;;;;25.48;17.70;;;;;;;8.73;95.25;100205.81;5068740;28;20075;-82
2021/11/21 02:27:35;;;;;;;28.98;19.67;;;;;;;8.71;95.45;100194.59;5082338;28;20087;-81
2021/11/21 02:30:06;;;;;;;28.38;19.85;;;;;;;8.72;95.41;100201.50;5057403;28;20049;-81
2021/11/21 02:32:33;;;;;;;28.05;19.73;;;;;;;8.78;94.83;100203.81;5032509;28;20623;-80
2021/11/21 02:35:01;;;;;;;28.60;20.08;;;;;;;8.71;94.68;100191.97;5049387;28;20491;-81
2021/11/21 02:37:28;;;;;;;31.73;20.23;;;;;;;8.71;94.74;100196.38;5053700;28;20059;-82
2021/11/21 02:39:55;;;;;;;25.70;18.88;;;;;;;8.65;95.30;100184.44;5055350;28;20040;-82
2021/11/21 02:42:29;;;;;;;31.30;21.73;;;;;;;8.69;94.84;100191.22;5068983;28;20064;-81
2021/11/21 02:44:58;;;;;;;29.60;19.30;;;;;;;8.66;94.97;100182.66;5054726;28;20067;-81
2021/11/21 02:47:32;;;;;;;29.40;20.90;;;;;;;8.70;94.41;100174.53;5071872;28;20127;-81
2021/11/21 02:50:19;;;;;;;32.10;20.38;;;;;;;8.68;94.70;100176.38;5065378;28;20044;-82
2021/11/21 02:52:47;;;;;;;31.05;20.77;;;;;;;8.63;95.19;100181.91;5062575;28;20487;-82
2021/11/21 02:55:15;;;;;;;31.73;21.95;;;;;;;8.58;95.03;100175.22;5065029;28;20519;-81
2021/11/21 02:57:43;;;;;;;31.50;20.70;;;;;;;8.58;94.81;100178.69;5037110;28;20499;-82
2021/11/21 03:00:13;;;;;;;31.98;20.90;;;;;;;8.57;94.84;100178.78;5045024;28;20135;-82
2021/11/21 03:02:41;;;;;;;34.00;21.73;;;;;;;8.58;95.24;100183.09;5049277;28;20549;-83
2021/11/21 03:05:09;;;;;;;35.03;22.10;;;;;;;8.61;94.10;100180.31;5056420;28;20097;-82
2021/11/21 03:07:38;;;;;;;33.22;22.77;;;;;;;8.58;93.72;100168.19;5035783;28;20143;-81
2021/11/21 03:10:08;;;;;;;31.77;22.65;;;;;;;8.59;94.20;100159.38;5052565;28;20131;-81
2021/11/21 03:12:35;;;;;;;32.97;22.45;;;;;;;8.62;93.82;100166.25;5050376;28;20078;-82
2021/11/21 03:15:03;;;;;;;33.00;22.40;;;;;;;8.62;93.47;100174.13;5027846;28;20131;-81
2021/11/21 03:17:31;;;;;;;35.10;23.90;;;;;;;8.67;94.08;100166.00;5061624;28;20055;-81
2021/11/21 03:19:58;;;;;;;35.53;23.00;;;;;;;8.63;93.51;100163.53;5054371;28;20079;-82
2021/11/21 03:22:25;;;;;;;34.92;23.88;;;;;;;8.58;93.59;100157.72;5065253;28;20087;-81
2021/11/21 03:24:52;;;;;;;31.88;21.33;;;;;;;8.59;93.93;100151.53;5066873;28;20042;-81
2021/11/21 03:27:20;;;;;;;37.05;22.85;;;;;;;8.59;93.53;100151.53;5028706;28;20053;-82
2021/11/21 03:29:48;;;;;;;32.83;21.90;;;;;;;8.58;93.33;100152.47;5067250;28;20055;-81
2021/11/21 03:32:16;;;;;;;32.25;22.80;;;;;;;8.56;93.70;100154.34;5055866;28;20140;-82
2021/11/21 03:34:44;;;;;;;36.80;22.70;;;;;;;8.56;93.09;100161.38;5054960;28;20043;-82
2021/11/21 03:37:12;;;;;;;35.47;22.70;;;;;;;8.61;93.19;100147.03;5058310;28;20053;-83
2021/11/21 03:39:39;;;;;;;31.52;21.65;;;;;;;8.59;93.07;100158.53;5052053;28;20398;-82
2021/11/21 03:42:06;;;;;;;35.33;23.00;;;;;;;8.52;92.83;100150.22;5067204;28;20123;-83
2021/11/21 03:44:34;;;;;;;39.50;23.77;;;;;;;8.51;92.96;100148.53;5059759;28;20115;-82
2021/11/21 03:47:01;;;;;;;37.05;22.70;;;;;;;8.55;93.02;100143.91;5065394;28;20062;-83
2021/11/21 03:49:28;;;;;;;35.58;23.30;;;;;;;8.54;92.94;100150.94;5053723;28;20126;-82
2021/11/21 03:51:56;;;;;;;38.25;23.30;;;;;;;8.54;92.88;100153.56;5072243;28;20440;-83
2021/11/21 03:54:23;;;;;;;38.42;24.80;;;;;;;8.52;92.78;100154.59;5063986;28;20131;-82
2021/11/21 03:56:51;;;;;;;38.42;23.80;;;;;;;8.50;92.61;100149.44;5048120;28;20139;-81
2021/11/21 03:59:19;;;;;;;36.33;23.52;;;;;;;8.48;92.94;100145.22;5069469;28;20044;-83
2021/11/21 04:01:48;;;;;;;36.30;23.60;;;;;;;8.50;93.27;100135.47;5042636;28;20127;-82
2021/11/21 04:04:16;;;;;;;36.20;23.77;;;;;;;8.53;92.90;100136.16;5030688;28;20064;-81
2021/11/21 04:06:43;;;;;;;36.45;23.00;;;;;;;8.52;93.05;100134.47;5070727;28;20507;-82
2021/11/21 04:09:10;;;;;;;41.97;25.02;;;;;;;8.43;93.37;100131.53;5019298;28;20394;-83
2021/11/21 04:11:37;;;;;;;36.28;23.95;;;;;;;8.41;93.54;100159.63;5045058;28;20119;-81
2021/11/21 04:14:05;;;;;;;38.55;25.38;;;;;;;8.45;93.17;100135.75;5067846;28;20418;-83
2021/11/21 04:16:32;;;;;;;41.83;25.40;;;;;;;8.42;92.91;100130.69;5050913;28;20059;-82
2021/11/21 04:19:00;;;;;;;37.35;23.20;;;;;;;8.41;93.92;100125.50;5045752;28;20043;-82
2021/11/21 04:21:27;;;;;;;38.50;24.63;;;;;;;8.50;93.50;100124.97;5029538;28;20047;-81
2021/11/21 04:23:55;;;;;;;36.65;24.50;;;;;;;8.44;93.54;100112.22;5067477;28;20131;-81
2021/11/21 04:26:23;;;;;;;34.30;22.50;;;;;;;8.43;93.88;100114.00;5070020;28;20109;-81
2021/11/21 04:28:51;;;;;;;36.83;24.45;;;;;;;8.40;93.71;100111.56;5048339;28;20040;-82
2021/11/21 04:31:18;;;;;;;36.33;23.35;;;;;;;8.46;93.23;100126.09;5032537;28;20140;-82
2021/11/21 04:33:46;;;;;;;35.70;22.35;;;;;;;8.40;93.25;100105.47;5051458;28;20123;-81
2021/11/21 04:36:13;;;;;;;34.15;22.58;;;;;;;8.37;93.56;100106.47;5068845;28;20044;-81
2021/11/21 04:38:40;;;;;;;36.72;23.75;;;;;;;8.40;92.99;100103.69;5040119;28;20059;-80
2021/11/21 04:41:08;;;;;;;37.75;23.77;;;;;;;8.39;93.20;100099.38;5053784;28;20072;-83
2021/11/21 04:43:35;;;;;;;35.63;23.63;;;;;;;8.34;93.68;100104.88;5044453;28;20051;-81
2021/11/21 04:46:02;;;;;;;41.58;23.55;;;;;;;8.39;93.00;100096.75;5039561;28;20068;-82
2021/11/21 04:48:30;;;;;;;41.05;25.17;;;;;;;8.37;93.40;100098.63;5041414;28;20135;-82
2021/11/21 04:50:59;;;;;;;42.65;23.80;;;;;;;8.37;93.90;100090.75;5031629;28;20070;-81
2021/11/21 04:53:26;;;;;;;38.58;24.95;;;;;;;8.31;94.19;100091.09;5061083;28;20062;-83
2021/11/21 04:55:54;;;;;;;37.05;23.33;;;;;;;8.28;95.09;100091.25;5101236;28;20048;-83
2021/11/21 04:58:21;;;;;;;39.50;25.98;;;;;;;8.31;95.12;100097.16;5077985;28;20061;-82
2021/11/21 05:00:48;;;;;;;40.97;26.25;;;;;;;8.24;95.33;100093.22;5052413;28;20049;-81
2021/11/21 05:03:16;;;;;;;42.22;25.20;;;;;;;8.25;94.98;100091.44;5041826;28;20076;-83
2021/11/21 05:05:43;;;;;;;39.50;21.83;;;;;;;8.23;95.61;100091.50;5036458;28;20152;-82
2021/11/21 05:08:10;;;;;;;45.40;25.08;;;;;;;8.19;95.71;100089.16;5051929;28;20407;-83
2021/11/21 05:10:38;;;;;;;38.15;24.25;;;;;;;8.22;95.17;100074.09;5062495;28;20041;-82
2021/11/21 05:13:05;;;;;;;40.63;25.85;;;;;;;8.19;96.08;100069.03;5055942;28;20108;-84
2021/11/21 05:15:33;;;;;;;39.22;23.77;;;;;;;8.19;96.54;100074.25;5049475;28;20041;-82
2021/11/21 05:18:00;;;;;;;38.92;22.95;;;;;;;8.21;95.05;100071.56;5051187;28;20037;-82
2021/11/21 05:20:28;;;;;;;40.35;23.58;;;;;;;8.21;95.32;100069.78;5067469;28;20052;-78
2021/11/21 05:22:55;;;;;;;36.78;23.27;;;;;;;8.21;95.25;100069.78;5049253;28;20131;-82
2021/11/21 05:25:23;;;;;;;36.47;22.08;;;;;;;8.13;96.37;100066.75;5079861;28;20040;-81
2021/11/21 05:27:50;;;;;;;39.50;24.65;;;;;;;8.21;96.09;100071.56;5074062;28;20060;-81
2021/11/21 05:30:20;;;;;;;39.47;24.23;;;;;;;8.20;95.73;100062.03;5062132;28;20566;-82
2021/11/21 05:32:49;;;;;;;43.33;25.52;;;;;;;8.18;96.44;100066.50;5049334;28;20052;-81
2021/11/21 05:35:17;;;;;;;38.95;23.95;;;;;;;8.17;96.28;100070.06;5044788;28;20143;-81
2021/11/21 05:37:46;;;;;;;35.15;23.40;;;;;;;8.09;96.39;100060.84;5071077;28;20076;-82
2021/11/21 05:40:14;;;;;;;36.83;22.40;;;;;;;8.19;96.47;100060.31;5064789;28;20129;-82
2021/11/21 05:42:42;;;;;;;39.08;24.63;;;;;;;8.11;97.13;100068.66;5023574;28;20049;-82
2021/11/21 05:45:10;;;;;;;38.92;23.70;;;;;;;8.09;96.84;100068.72;5048195;28;20049;-82
2021/11/21 05:47:37;;;;;;;36.67;22.20;;;;;;;8.13;96.90;100064.16;5052082;28;20136;-82
2021/11/21 05:50:06;;;;;;;39.15;23.15;;;;;;;8.09;96.62;100075.72;5065426;28;20411;-82
2021/11/21 05:52:33;;;;;;;38.53;22.15;;;;;;;8.05;96.69;100075.06;5051440;28;20047;-82
2021/11/21 05:55:00;;;;;;;36.78;23.42;;;;;;;8.06;96.85;100071.53;5048161;28;20071;-82
2021/11/21 05:57:28;;;;;;;33.53;21.30;;;;;;;8.09;96.22;100071.34;5047389;28;20044;-81
2021/11/21 05:59:55;;;;;;;33.08;21.50;;;;;;;8.05;96.39;100076.84;5066250;28;20055;-82
2021/11/21 06:02:22;;;;;;;33.47;21.30;;;;;;;7.98;96.97;100068.50;5050527;28;20054;-82
2021/11/21 06:04:50;;;;;;;35.50;22.17;;;;;;;7.91;97.66;100064.53;5064885;28;20049;-82
2021/11/21 06:07:17;;;;;;;34.85;20.95;;;;;;;7.93;97.51;100067.91;5067270;28;20078;-83
2021/11/21 06:09:44;;;;;;;33.22;20.63;;;;;;;7.91;97.41;100050.56;5030730;28;20152;-82
2021/11/21 06:12:11;;;;;;;34.65;19.80;;;;;;;7.90;98.52;100057.59;5065547;28;20041;-82
2021/11/21 06:14:39;;;;;;;35.60;22.65;;;;;;;7.94;98.29;100048.63;5052379;28;20431;-82
2021/11/21 06:17:07;;;;;;;34.55;21.08;;;;;;;8.00;97.91;100055.28;5070069;28;20045;-82
2021/11/21 06:19:35;;;;;;;33.67;20.75;;;;;;;8.05;96.74;100050.63;5048805;28;20053;-83
2021/11/21 06:22:03;;;;;;;33.08;20.63;;;;;;;7.96;97.61;100043.28;5036371;28;20045;-82
2021/11/21 06:24:32;;;;;;;35.92;21.95;;;;;;;7.94;97.49;100047.78;5065249;28;20135;-83
2021/11/21 06:26:59;;;;;;;35.97;21.48;;;;;;;7.93;98.18;100046.94;5052679;28;20132;-82
2021/11/21 06:29:27;;;;;;;32.70;20.58;;;;;;;7.93;98.31;100046.13;5040848;28;20571;-83
2021/11/21 06:31:54;;;;;;;34.22;20.95;;;;;;;7.95;97.99;100034.59;5073269;28;20055;-83
2021/11/21 06:34:24;;;;;;;39.33;21.58;;;;;;;7.94;98.14;100047.78;5016923;28;20036;-81
2021/11/21 06:36:53;;;;;;;35.85;21.05;;;;;;;7.84;98.27;100039.63;5072538;28;20131;-81
2021/11/21 06:39:24;;;;;;;34.55;21.05;;;;;;;7.87;98.44;100034.19;5068691;28;20048;-79
2021/11/21 06:41:52;;;;;;;34.47;20.38;;;;;;;7.90;97.67;100041.03;5034030;28;20151;-81
2021/11/21 06:44:28;;;;;;;36.90;21.42;;;;;;;7.93;97.94;100028.59;5066204;28;20148;-82
2021/11/21 06:47:05;;;;;;;30.75;18.58;;;;;;;7.91;97.94;100043.56;5038972;28;20048;-82
2021/11/21 06:49:34;;;;;;;34.95;19.92;;;;;;;7.97;97.62;100043.22;5070623;28;20574;-82
2021/11/21 06:52:03;;;;;;;35.78;19.58;;;;;;;7.92;97.38;100034.75;5070759;28;20072;-82
2021/11/21 06:54:34;;;;;;;31.45;19.98;;;;;;;7.95;97.38;100033.75;5067652;28;20036;-82
2021/11/21 06:57:11;;;;;;;31.30;18.35;;;;;;;7.91;97.88;100037.47;5051627;28;20051;-80
2021/11/21 06:59:38;;;;;;;32.83;18.95;;;;;;;7.92;97.94;100036.53;5064606;28;20130;-81
2021/11/21 07:02:11;;;;;;;29.13;18.15;;;;;;;7.96;97.88;100044.13;5031139;28;20044;-84
2021/11/21 07:04:38;;;;;;;33.20;18.73;;;;;;;7.96;97.64;100044.13;5060531;28;20059;-81
2021/11/21 07:07:10;;;;;;;29.23;18.30;;;;;;;7.93;97.23;100039.09;5063968;28;20049;-82
2021/11/21 07:09:44;;;;;;;30.27;18.60;;;;;;;7.99;97.13;100041.34;5043384;28;20044;-82
2021/11/21 07:12:12;;;;;;;32.63;18.98;;;;;;;7.99;97.19;100041.34;5048003;28;20053;-81
2021/11/21 07:15:02;;;;;;;30.15;17.75;;;;;;;8.03;97.45;100044.66;5055044;28;20051;-79
2021/11/21 07:17:31;;;;;;;30.98;18.60;;;;;;;8.05;97.95;100048.84;5031103;28;20701;-83
2021/11/21 07:19:59;;;;;;;28.85;17.70;;;;;;;8.06;98.27;100053.19;5058577;28;20139;-82
2021/11/21 07:22:26;;;;;;;30.00;18.65;;;;;;;8.07;98.47;100052.25;5044737;28;20055;-82
2021/11/21 07:24:53;;;;;;;27.45;16.80;;;;;;;8.06;99.05;100055.81;5058719;28;20136;-83
2021/11/21 07:27:21;;;;;;;29.05;17.45;;;;;;;8.05;99.75;100048.00;5050913;28;20049;-82
2021/11/21 07:29:49;;;;;;;28.77;17.10;;;;;;;8.06;99.73;100040.06;5055769;28;20064;-83
2021/11/21 07:32:16;;;;;;;26.75;16.23;;;;;;;8.11;99.42;100047.66;5049093;28;20628;-82
2021/11/21 07:34:45;;;;;;;31.20;18.30;;;;;;;8.11;99.28;100037.19;5041120;28;20140;-82
2021/11/21 07:37:13;;;;;;;26.10;15.35;;;;;;;8.06;99.28;100052.31;5059311;28;20112;-82
2021/11/21 07:39:40;;;;;;;29.38;17.40;;;;;;;8.02;100.00;100056.91;5056699;28;20052;-82
2021/11/21 07:42:07;;;;;;;24.77;16.65;;;;;;;8.13;99.87;100051.03;5062327;28;20051;-82
2021/11/21 07:44:35;;;;;;;26.25;17.13;;;;;;;8.05;100.00;100054.09;5037962;28;20140;-82
2021/11/21 07:47:04;;;;;;;28.02;17.40;;;;;;;8.02;100.00;100064.78;5064802;28;20128;-83
2021/11/21 07:49:32;;;;;;;25.35;15.95;;;;;;;7.93;100.00;100060.06;5042549;28;20112;-83
2021/11/21 07:51:59;;;;;;;29.95;17.63;;;;;;;7.93;100.00;100053.97;5042099;28;20669;-82
2021/11/21 07:54:27;;;;;;;28.98;17.88;;;;;;;7.86;100.00;100070.03;5052896;28;20632;-83
2021/11/21 07:56:54;;;;;;;31.15;18.27;;;;;;;7.84;100.00;100056.19;5044561;28;20055;-80
2021/11/21 07:59:24;;;;;;;30.88;17.63;;;;;;;7.80;100.00;100067.75;5023328;28;20079;-83
2021/11/21 08:01:51;;;;;;;31.52;18.17;;;;;;;7.80;100.00;100065.16;5027808;28;20128;-82
2021/11/21 08:04:19;;;;;;;31.60;18.20;;;;;;;7.83;100.00;100074.59;5037845;28;20135;-83
2021/11/21 08:06:47;;;;;;;31.00;17.65;;;;;;;7.79;100.00;100073.06;5016806;28;20117;-84
2021/11/21 08:09:15;;;;;;;30.38;17.52;;;;;;;7.78;100.00;100068.78;5021496;28;20483;-84
2021/11/21 08:11:44;;;;;;;30.17;17.65;;;;;;;7.66;100.00;100074.72;5062000;28;20041;-82
2021/11/21 08:14:11;;;;;;;31.05;17.63;;;;;;;7.68;100.00;100081.53;5047242;28;20530;-83
2021/11/21 08:16:41;;;;;;;31.58;17.40;;;;;;;7.68;100.00;100083.31;5041794;28;20063;-82
2021/11/21 08:19:10;;;;;;;32.95;18.27;;;;;;;7.69;100.00;100082.38;5043392;28;20063;-82
2021/11/21 08:21:38;;;;;;;34.03;18.10;;;;;;;7.72;100.00;100075.19;5035335;28;20063;-83
2021/11/21 08:24:09;;;;;;;30.80;18.33;;;;;;;7.72;100.00;100087.47;5064352;28;20048;-82
2021/11/21 08:26:40;;;;;;;32.58;18.40;;;;;;;7.65;100.00;100080.84;5042912;28;20436;-81
2021/11/21 08:29:07;;;;;;;33.10;19.08;;;;;;;7.68;100.00;100084.16;5052021;28;20072;-84
2021/11/21 08:31:56;;;;;;;30.60;17.70;;;;;;;7.68;100.00;100088.56;5057155;28;20041;-81
2021/11/21 08:34:47;;;;;;;37.78;18.60;;;;;;;7.63;100.00;100087.97;5068890;28;20040;-83
2021/11/21 08:37:16;;;;;;;34.00;18.63;;;;;;;7.55;100.00;100086.59;5069218;28;20049;-83
2021/11/21 08:39:43;;;;;;;36.92;18.05;;;;;;;7.57;100.00;100082.16;5092066;28;20480;-86
2021/11/21 08:42:10;;;;;;;30.73;17.42;;;;;;;7.51;100.00;100085.09;5046860;28;20079;-86
2021/11/21 08:44:37;;;;;;;33.97;19.38;;;;;;;7.50;100.00;100083.41;5058720;28;20044;-82
2021/11/21 08:47:05;;;;;;;33.83;18.67;;;;;;;7.46;100.00;100087.13;5092223;28;20100;-85
2021/11/21 08:49:33;;;;;;;28.83;16.73;;;;;;;7.56;100.00;100088.28;5068290;28;20068;-85
2021/11/21 08:52:04;;;;;;;34.30;17.27;;;;;;;7.54;100.00;100087.53;5049076;28;20132;-84
2021/11/21 08:54:32;;;;;;;35.47;18.25;;;;;;;7.58;100.00;100077.75;5055872;28;20087;-83
2021/11/21 08:57:00;;;;;;;35.22;17.48;;;;;;;7.59;100.00;100080.28;5066863;28;20051;-85
2021/11/21 08:59:27;;;;;;;34.58;18.05;;;;;;;7.62;100.00;100076.66;5038256;28;20144;-85
2021/11/21 09:01:56;;;;;;;36.75;18.88;;;;;;;7.60;100.00;100079.34;5075040;28;20115;-84
2021/11/21 09:04:24;;;;;;;29.52;17.08;;;;;;;7.60;100.00;100079.34;5064669;28;20058;-86
2021/11/21 09:06:51;;;;;;;30.20;16.90;;;;;;;7.63;100.00;100083.56;5055378;28;20044;-84
2021/11/21 09:09:18;;;;;;;29.73;17.08;;;;;;;7.52;100.00;100086.78;5067953;28;20578;-84
2021/11/21 09:11:46;;;;;;;30.13;16.45;;;;;;;7.61;100.00;100083.66;5040669;28;20414;-84
2021/11/21 09:14:16;;;;;;;31.20;17.02;;;;;;;7.64;100.00;100084.41;5072017;28;20076;-85
2021/11/21 09:16:44;;;;;;;29.73;16.15;;;;;;;7.64;100.00;100087.88;5060452;28;20526;-83
2021/11/21 09:19:12;;;;;;;29.15;17.65;;;;;;;7.57;100.00;100086.53;5036813;28;20080;-83
2021/11/21 09:21:42;;;;;;;39.95;19.25;;;;;;;7.63;100.00;100090.59;5063007;28;20131;-81
2021/11/21 09:24:10;;;;;;;28.40;16.23;;;;;;;7.74;100.00;100081.19;5077898;28;20047;-83
2021/11/21 09:26:38;;;;;;;30.83;17.13;;;;;;;7.73;100.00;100082.13;5075056;28;20490;-84
2021/11/21 09:29:05;;;;;;;27.55;15.82;;;;;;;7.82;100.00;100073.75;5063659;28;20586;-82
2021/11/21 09:31:33;;;;;;;29.90;15.35;;;;;;;7.84;100.00;100084.16;5076813;28;20041;-84
2021/11/21 09:34:01;;;;;;;28.95;16.50;;;;;;;7.83;100.00;100082.44;5049546;28;20052;-84
2021/11/21 09:36:28;;;;;;;30.10;17.27;;;;;;;7.75;100.00;100082.91;5050207;28;20140;-84
2021/11/21 09:38:55;;;;;;;26.60;15.90;;;;;;;7.82;100.00;100086.84;5052408;28;20116;-83
2021/11/21 09:41:22;;;;;;;25.63;16.30;;;;;;;7.88;100.00;100093.53;5062894;28;20174;-85
2021/11/21 09:43:50;;;;;;;28.92;15.60;;;;;;;7.77;100.00;100074.94;5056192;28;20067;-82
2021/11/21 09:46:18;;;;;;;26.90;15.98;;;;;;;7.78;100.00;100079.25;5071657;28;20052;-83
2021/11/21 09:48:47;;;;;;;25.48;15.32;;;;;;;7.74;100.00;100081.19;5053518;28;20068;-84
2021/11/21 09:51:15;;;;;;;25.52;14.80;;;;;;;7.76;100.00;100078.50;5066863;28;20531;-81
2021/11/21 09:53:42;;;;;;;27.13;14.80;;;;;;;7.75;100.00;100075.03;5038437;28;20044;-85
2021/11/21 09:56:11;;;;;;;27.58;16.67;;;;;;;7.83;100.00;100067.59;5058091;28;20048;-81
2021/11/21 09:58:38;;;;;;;27.70;16.30;;;;;;;7.81;100.00;100068.59;5040792;28;20065;-84
2021/11/21 10:01:06;;;;;;;27.23;15.73;;;;;;;7.69;100.00;100051.78;5067513;28;20056;-82
2021/11/21 10:03:44;;;;;;;30.13;17.08;;;;;;;7.74;100.00;100056.78;5054354;28;20720;-88
2021/11/21 10:06:29;;;;;;;26.10;16.52;;;;;;;7.76;100.00;100054.91;5070062;28;20406;-84
2021/11/21 10:08:56;;;;;;;29.88;17.77;;;;;;;7.70;100.00;100060.47;5060291;28;20079;-84
2021/11/21 10:11:24;;;;;;;26.70;16.20;;;;;;;7.78;100.00;100059.13;5048102;28;20054;-83
2021/11/21 10:13:55;;;;;;;28.35;16.85;;;;;;;7.79;100.00;100052.97;5060244;28;20080;-84
2021/11/21 10:16:35;;;;;;;27.45;16.67;;;;;;;7.75;100.00;100059.31;5059425;28;20076;-83
2021/11/21 10:19:06;;;;;;;29.95;17.67;;;;;;;7.77;100.00;100053.97;5048863;28;20146;-84
2021/11/21 10:21:36;;;;;;;26.60;17.30;;;;;;;7.71;100.00;100051.72;5071809;28;20509;-84
2021/11/21 10:24:10;;;;;;;28.83;17.88;;;;;;;7.72;100.00;100056.88;5044724;28;20067;-82
2021/11/21 10:26:38;;;;;;;36.08;18.10;;;;;;;7.75;100.00;100064.56;5073053;28;20064;-83
2021/11/21 10:29:32;;;;;;;28.77;16.88;;;;;;;7.89;100.00;100057.69;5055060;28;20049;-82
2021/11/21 10:32:02;;;;;;;27.70;17.42;;;;;;;7.89;100.00;100058.53;5047505;28;20227;-82
2021/11/21 10:34:30;;;;;;;30.75;17.85;;;;;;;7.91;100.00;100056.66;5061613;28;20056;-82
2021/11/21 10:37:08;;;;;;;28.13;17.02;;;;;;;7.94;100.00;100046.00;5070731;28;20065;-82
2021/11/21 10:39:50;;;;;;;27.40;15.98;;;;;;;7.96;100.00;100052.00;5057334;28;20072;-83
2021/11/21 10:42:23;;;;;;;26.25;16.83;;;;;;;8.05;100.00;100048.00;5073254;28;20140;-82
2021/11/21 10:44:51;;;;;;;27.88;17.52;;;;;;;8.05;100.00;100054.09;5044136;28;20049;-84
2021/11/21 10:47:19;;;;;;;28.63;17.52;;;;;;;8.04;100.00;100062.06;5066528;28;20073;-84
2021/11/21 10:49:52;;;;;;;26.45;16.77;;;;;;;8.07;100.00;100064.50;5057577;28;20036;-85
2021/11/21 10:52:22;;;;;;;29.60;18.90;;;;;;;8.03;100.00;100058.59;5072226;28;20052;-84
2021/11/21 10:54:56;;;;;;;29.45;17.42;;;;;;;8.08;100.00;100064.41;5064070;28;20110;-84
2021/11/21 10:57:34;;;;;;;25.15;15.80;;;;;;;8.06;100.00;100055.81;5059953;28;20144;-83
2021/11/21 11:00:20;;;;;;;26.10;16.67;;;;;;;8.13;100.00;100058.91;5044451;28;20059;-82
2021/11/21 11:02:50;;;;;;;26.17;16.67;;;;;;;8.16;100.00;100050.88;5083268;28;20040;-83
2021/11/21 11:05:20;;;;;;;23.80;16.40;;;;;;;8.19;100.00;100055.91;5049528;28;20037;-83
2021/11/21 11:07:47;;;;;;;26.73;16.70;;;;;;;8.11;100.00;100056.38;5055891;28;20051;-83
2021/11/21 11:10:17;;;;;;;24.75;16.40;;;;;;;8.12;100.00;100058.06;5078349;28;20676;-85
2021/11/21 11:12:49;;;;;;;24.20;15.98;;;;;;;8.06;100.00;100058.44;5060176;28;20070;-83
2021/11/21 11:15:17;;;;;;;25.13;15.88;;;;;;;8.07;100.00;100054.88;5059892;28;20051;-84
2021/11/21 11:17:45;;;;;;;26.33;16.65;;;;;;;8.15;100.00;100058.81;5049215;28;20081;-83
2021/11/21 11:20:15;;;;;;;25.33;17.30;;;;;;;8.03;100.00;100063.00;5062230;28;20135;-85
2021/11/21 11:22:43;;;;;;;26.00;16.35;;;;;;;8.09;100.00;100058.22;5074739;28;20063;-82